sensor_id;sensor_type;location;lat;lon;timestamp;P1;durP1;ratioP1;P2;durP2;ratioP2
1026;SDS011;502;48.746;9.214;2023-02-13T00:00:32;20.40;;;14.10;;
1026;SDS011;502;48.746;9.214;2023-02-13T00:02:59;25.63;;;14.67;;
1026;SDS011;502;48.746;9.214;2023-02-13T00:05:26;19.10;;;13.13;;
1026;SDS011;502;48.746;9.214;2023-02-13T00:07:54;22.63;;;14.17;;
1026;SDS011;502;48.746;9.214;2023-02-13T00:10:21;23.33;;;14.53;;
1026;SDS011;502;48.746;9.214;2023-02-13T00:12:48;21.20;;;13.10;;
1026;SDS011;502;48.746;9.214;2023-02-13T00:15:14;20.67;;;13.67;;
1026;SDS011;502;48.746;9.214;2023-02-13T00:17:41;21.87;;;14.20;;
1026;SDS011;502;48.746;9.214;2023-02-13T00:20:08;21.23;;;13.97;;
1026;SDS011;502;48.746;9.214;2023-02-13T00:22:36;18.20;;;13.67;;
1026;SDS011;502;48.746;9.214;2023-02-13T00:25:05;23.10;;;14.60;;
1026;SDS011;502;48.746;9.214;2023-02-13T00:27:32;22.53;;;15.43;;
1026;SDS011;502;48.746;9.214;2023-02-13T00:30:00;20.67;;;14.60;;
1026;SDS011;502;48.746;9.214;2023-02-13T00:32:27;18.50;;;12.83;;
1026;SDS011;502;48.746;9.214;2023-02-13T00:34:54;22.50;;;13.97;;
1026;SDS011;502;48.746;9.214;2023-02-13T00:37:21;22.77;;;14.43;;
1026;SDS011;502;48.746;9.214;2023-02-13T00:39:50;21.60;;;14.50;;
1026;SDS011;502;48.746;9.214;2023-02-13T00:42:19;21.83;;;14.00;;
1026;SDS011;502;48.746;9.214;2023-02-13T00:44:48;18.83;;;12.70;;
1026;SDS011;502;48.746;9.214;2023-02-13T00:47:15;15.30;;;12.60;;
1026;SDS011;502;48.746;9.214;2023-02-13T00:49:41;19.20;;;13.70;;
1026;SDS011;502;48.746;9.214;2023-02-13T00:52:08;21.23;;;13.87;;
1026;SDS011;502;48.746;9.214;2023-02-13T00:54:35;20.47;;;13.60;;
1026;SDS011;502;48.746;9.214;2023-02-13T00:57:02;19.40;;;13.50;;
1026;SDS011;502;48.746;9.214;2023-02-13T00:59:30;24.10;;;13.80;;
1026;SDS011;502;48.746;9.214;2023-02-13T01:01:57;19.60;;;12.43;;
1026;SDS011;502;48.746;9.214;2023-02-13T01:04:24;19.60;;;12.57;;
1026;SDS011;502;48.746;9.214;2023-02-13T01:06:51;20.77;;;14.10;;
1026;SDS011;502;48.746;9.214;2023-02-13T01:09:17;22.07;;;14.23;;
1026;SDS011;502;48.746;9.214;2023-02-13T01:11:44;17.43;;;12.60;;
1026;SDS011;502;48.746;9.214;2023-02-13T01:14:11;18.70;;;12.63;;
1026;SDS011;502;48.746;9.214;2023-02-13T01:16:39;19.33;;;13.07;;
1026;SDS011;502;48.746;9.214;2023-02-13T01:19:06;18.90;;;12.80;;
1026;SDS011;502;48.746;9.214;2023-02-13T01:21:32;24.17;;;15.57;;
1026;SDS011;502;48.746;9.214;2023-02-13T01:24:01;20.20;;;12.90;;
1026;SDS011;502;48.746;9.214;2023-02-13T01:26:28;22.00;;;13.20;;
1026;SDS011;502;48.746;9.214;2023-02-13T01:28:55;20.60;;;13.53;;
1026;SDS011;502;48.746;9.214;2023-02-13T01:31:22;18.10;;;12.57;;
1026;SDS011;502;48.746;9.214;2023-02-13T01:33:51;20.40;;;14.10;;
1026;SDS011;502;48.746;9.214;2023-02-13T01:36:20;18.30;;;12.47;;
1026;SDS011;502;48.746;9.214;2023-02-13T01:38:47;20.70;;;14.03;;
1026;SDS011;502;48.746;9.214;2023-02-13T01:41:13;21.47;;;13.97;;
1026;SDS011;502;48.746;9.214;2023-02-13T01:43:45;18.40;;;13.30;;
1026;SDS011;502;48.746;9.214;2023-02-13T01:46:14;19.83;;;13.97;;
1026;SDS011;502;48.746;9.214;2023-02-13T01:48:42;23.50;;;15.10;;
1026;SDS011;502;48.746;9.214;2023-02-13T01:51:11;22.70;;;14.20;;
1026;SDS011;502;48.746;9.214;2023-02-13T01:53:41;18.77;;;14.23;;
1026;SDS011;502;48.746;9.214;2023-02-13T01:56:10;20.60;;;13.80;;
1026;SDS011;502;48.746;9.214;2023-02-13T01:58:40;20.37;;;14.03;;
1026;SDS011;502;48.746;9.214;2023-02-13T02:01:09;22.93;;;13.50;;
1026;SDS011;502;48.746;9.214;2023-02-13T02:03:37;23.60;;;16.07;;
1026;SDS011;502;48.746;9.214;2023-02-13T02:06:11;20.43;;;14.67;;
1026;SDS011;502;48.746;9.214;2023-02-13T02:08:40;24.60;;;15.03;;
1026;SDS011;502;48.746;9.214;2023-02-13T02:11:17;21.63;;;16.27;;
1026;SDS011;502;48.746;9.214;2023-02-13T02:13:49;20.60;;;14.10;;
1026;SDS011;502;48.746;9.214;2023-02-13T02:16:26;26.60;;;15.87;;
1026;SDS011;502;48.746;9.214;2023-02-13T02:18:53;21.33;;;13.93;;
1026;SDS011;502;48.746;9.214;2023-02-13T02:21:29;22.60;;;14.10;;
1026;SDS011;502;48.746;9.214;2023-02-13T02:24:10;21.63;;;15.10;;
1026;SDS011;502;48.746;9.214;2023-02-13T02:27:04;20.73;;;14.40;;
1026;SDS011;502;48.746;9.214;2023-02-13T02:29:50;21.00;;;14.20;;
1026;SDS011;502;48.746;9.214;2023-02-13T02:32:34;20.87;;;13.93;;
1026;SDS011;502;48.746;9.214;2023-02-13T02:35:12;21.33;;;13.03;;
1026;SDS011;502;48.746;9.214;2023-02-13T02:37:51;23.30;;;13.70;;
1026;SDS011;502;48.746;9.214;2023-02-13T02:40:29;21.33;;;14.30;;
1026;SDS011;502;48.746;9.214;2023-02-13T02:43:05;20.30;;;12.90;;
1026;SDS011;502;48.746;9.214;2023-02-13T02:45:38;16.97;;;13.23;;
1026;SDS011;502;48.746;9.214;2023-02-13T02:48:21;21.13;;;13.83;;
1026;SDS011;502;48.746;9.214;2023-02-13T02:51:10;18.77;;;13.00;;
1026;SDS011;502;48.746;9.214;2023-02-13T02:53:43;24.03;;;14.13;;
1026;SDS011;502;48.746;9.214;2023-02-13T02:56:17;20.80;;;13.10;;
1026;SDS011;502;48.746;9.214;2023-02-13T02:58:47;21.33;;;12.60;;
1026;SDS011;502;48.746;9.214;2023-02-13T03:01:34;17.17;;;12.10;;
1026;SDS011;502;48.746;9.214;2023-02-13T03:04:23;19.87;;;12.80;;
1026;SDS011;502;48.746;9.214;2023-02-13T03:07:09;20.70;;;13.90;;
1026;SDS011;502;48.746;9.214;2023-02-13T03:09:38;19.80;;;14.20;;
1026;SDS011;502;48.746;9.214;2023-02-13T03:12:25;21.30;;;13.70;;
1026;SDS011;502;48.746;9.214;2023-02-13T03:15:12;21.70;;;13.27;;
1026;SDS011;502;48.746;9.214;2023-02-13T03:17:39;24.53;;;14.27;;
1026;SDS011;502;48.746;9.214;2023-02-13T03:20:27;19.20;;;12.80;;
1026;SDS011;502;48.746;9.214;2023-02-13T03:23:16;19.53;;;15.10;;
1026;SDS011;502;48.746;9.214;2023-02-13T03:26:14;20.10;;;13.03;;
1026;SDS011;502;48.746;9.214;2023-02-13T03:29:00;21.83;;;14.60;;
1026;SDS011;502;48.746;9.214;2023-02-13T03:31:51;19.90;;;14.00;;
1026;SDS011;502;48.746;9.214;2023-02-13T03:34:26;18.40;;;13.57;;
1026;SDS011;502;48.746;9.214;2023-02-13T03:37:17;20.30;;;13.47;;
1026;SDS011;502;48.746;9.214;2023-02-13T03:40:04;16.70;;;11.53;;
1026;SDS011;502;48.746;9.214;2023-02-13T03:42:34;22.00;;;13.83;;
1026;SDS011;502;48.746;9.214;2023-02-13T03:45:03;24.27;;;13.70;;
1026;SDS011;502;48.746;9.214;2023-02-13T03:47:50;20.63;;;14.90;;
1026;SDS011;502;48.746;9.214;2023-02-13T03:50:18;20.70;;;13.33;;
1026;SDS011;502;48.746;9.214;2023-02-13T03:52:49;22.33;;;13.50;;
1026;SDS011;502;48.746;9.214;2023-02-13T03:55:18;19.30;;;14.10;;
1026;SDS011;502;48.746;9.214;2023-02-13T03:58:04;24.93;;;15.10;;
1026;SDS011;502;48.746;9.214;2023-02-13T04:00:53;20.00;;;13.90;;
1026;SDS011;502;48.746;9.214;2023-02-13T04:03:23;22.23;;;13.57;;
1026;SDS011;502;48.746;9.214;2023-02-13T04:05:52;20.90;;;13.50;;
1026;SDS011;502;48.746;9.214;2023-02-13T04:08:23;23.20;;;14.07;;
1026;SDS011;502;48.746;9.214;2023-02-13T04:10:51;26.67;;;16.33;;
1026;SDS011;502;48.746;9.214;2023-02-13T04:13:20;24.80;;;15.70;;
1026;SDS011;502;48.746;9.214;2023-02-13T04:15:53;21.57;;;14.27;;
1026;SDS011;502;48.746;9.214;2023-02-13T04:18:22;24.07;;;15.17;;
1026;SDS011;502;48.746;9.214;2023-02-13T04:20:50;21.90;;;14.60;;
1026;SDS011;502;48.746;9.214;2023-02-13T04:23:17;25.30;;;15.20;;
1026;SDS011;502;48.746;9.214;2023-02-13T04:25:46;21.80;;;15.10;;
1026;SDS011;502;48.746;9.214;2023-02-13T04:28:14;22.77;;;15.90;;
1026;SDS011;502;48.746;9.214;2023-02-13T04:30:41;23.63;;;14.60;;
1026;SDS011;502;48.746;9.214;2023-02-13T04:33:08;23.20;;;14.80;;
1026;SDS011;502;48.746;9.214;2023-02-13T04:35:34;20.93;;;14.60;;
1026;SDS011;502;48.746;9.214;2023-02-13T04:38:01;26.47;;;16.50;;
1026;SDS011;502;48.746;9.214;2023-02-13T04:40:28;26.37;;;17.53;;
1026;SDS011;502;48.746;9.214;2023-02-13T04:42:56;28.20;;;18.37;;
1026;SDS011;502;48.746;9.214;2023-02-13T04:45:23;28.97;;;18.00;;
1026;SDS011;502;48.746;9.214;2023-02-13T04:47:49;28.90;;;17.67;;
1026;SDS011;502;48.746;9.214;2023-02-13T04:50:17;26.13;;;17.00;;
1026;SDS011;502;48.746;9.214;2023-02-13T04:52:44;25.57;;;15.93;;
1026;SDS011;502;48.746;9.214;2023-02-13T04:55:11;23.03;;;15.80;;
1026;SDS011;502;48.746;9.214;2023-02-13T04:57:37;23.57;;;17.13;;
1026;SDS011;502;48.746;9.214;2023-02-13T05:00:07;21.53;;;15.30;;
1026;SDS011;502;48.746;9.214;2023-02-13T05:02:34;23.23;;;15.10;;
1026;SDS011;502;48.746;9.214;2023-02-13T05:05:01;28.77;;;17.70;;
1026;SDS011;502;48.746;9.214;2023-02-13T05:07:27;22.00;;;16.67;;
1026;SDS011;502;48.746;9.214;2023-02-13T05:09:54;23.27;;;15.73;;
1026;SDS011;502;48.746;9.214;2023-02-13T05:12:20;23.70;;;15.53;;
1026;SDS011;502;48.746;9.214;2023-02-13T05:14:47;25.80;;;16.20;;
1026;SDS011;502;48.746;9.214;2023-02-13T05:17:15;23.30;;;17.03;;
1026;SDS011;502;48.746;9.214;2023-02-13T05:19:42;24.67;;;16.67;;
1026;SDS011;502;48.746;9.214;2023-02-13T05:22:09;23.50;;;17.10;;
1026;SDS011;502;48.746;9.214;2023-02-13T05:24:54;25.90;;;17.37;;
1026;SDS011;502;48.746;9.214;2023-02-13T05:27:20;23.10;;;15.10;;
1026;SDS011;502;48.746;9.214;2023-02-13T05:29:47;24.33;;;16.13;;
1026;SDS011;502;48.746;9.214;2023-02-13T05:32:14;23.07;;;16.60;;
1026;SDS011;502;48.746;9.214;2023-02-13T05:34:42;21.93;;;16.13;;
1026;SDS011;502;48.746;9.214;2023-02-13T05:37:08;22.83;;;14.17;;
1026;SDS011;502;48.746;9.214;2023-02-13T05:39:35;22.97;;;15.80;;
1026;SDS011;502;48.746;9.214;2023-02-13T05:42:02;25.27;;;16.10;;
1026;SDS011;502;48.746;9.214;2023-02-13T05:44:29;27.63;;;16.27;;
1026;SDS011;502;48.746;9.214;2023-02-13T05:46:55;24.97;;;17.13;;
1026;SDS011;502;48.746;9.214;2023-02-13T05:49:23;30.13;;;21.07;;
1026;SDS011;502;48.746;9.214;2023-02-13T05:51:50;29.33;;;21.40;;
1026;SDS011;502;48.746;9.214;2023-02-13T05:54:17;25.67;;;20.57;;
1026;SDS011;502;48.746;9.214;2023-02-13T05:56:44;29.83;;;17.90;;
1026;SDS011;502;48.746;9.214;2023-02-13T05:59:11;27.27;;;19.63;;
1026;SDS011;502;48.746;9.214;2023-02-13T06:01:38;24.53;;;18.20;;
1026;SDS011;502;48.746;9.214;2023-02-13T06:04:05;24.20;;;18.57;;
1026;SDS011;502;48.746;9.214;2023-02-13T06:06:33;25.37;;;15.87;;
1026;SDS011;502;48.746;9.214;2023-02-13T06:09:00;21.00;;;15.73;;
1026;SDS011;502;48.746;9.214;2023-02-13T06:11:27;23.60;;;16.37;;
1026;SDS011;502;48.746;9.214;2023-02-13T06:13:53;21.77;;;14.57;;
1026;SDS011;502;48.746;9.214;2023-02-13T06:16:20;26.87;;;15.80;;
1026;SDS011;502;48.746;9.214;2023-02-13T06:18:47;22.83;;;15.10;;
1026;SDS011;502;48.746;9.214;2023-02-13T06:21:14;24.87;;;16.20;;
1026;SDS011;502;48.746;9.214;2023-02-13T06:23:42;26.60;;;14.23;;
1026;SDS011;502;48.746;9.214;2023-02-13T06:26:09;19.43;;;14.30;;
1026;SDS011;502;48.746;9.214;2023-02-13T06:28:35;19.47;;;13.90;;
1026;SDS011;502;48.746;9.214;2023-02-13T06:31:02;17.40;;;13.33;;
1026;SDS011;502;48.746;9.214;2023-02-13T06:33:29;17.80;;;13.40;;
1026;SDS011;502;48.746;9.214;2023-02-13T06:35:56;22.13;;;13.73;;
1026;SDS011;502;48.746;9.214;2023-02-13T06:38:23;18.93;;;11.47;;
1026;SDS011;502;48.746;9.214;2023-02-13T06:40:51;19.03;;;12.13;;
1026;SDS011;502;48.746;9.214;2023-02-13T06:43:17;19.80;;;13.77;;
1026;SDS011;502;48.746;9.214;2023-02-13T06:45:44;22.67;;;14.40;;
1026;SDS011;502;48.746;9.214;2023-02-13T06:48:12;23.00;;;14.13;;
1026;SDS011;502;48.746;9.214;2023-02-13T06:50:39;17.30;;;13.83;;
1026;SDS011;502;48.746;9.214;2023-02-13T06:53:05;22.70;;;14.40;;
1026;SDS011;502;48.746;9.214;2023-02-13T06:55:32;19.80;;;13.20;;
1026;SDS011;502;48.746;9.214;2023-02-13T06:58:00;24.73;;;15.77;;
1026;SDS011;502;48.746;9.214;2023-02-13T07:00:27;18.57;;;12.80;;
1026;SDS011;502;48.746;9.214;2023-02-13T07:02:54;20.77;;;13.57;;
1026;SDS011;502;48.746;9.214;2023-02-13T07:05:20;20.97;;;13.97;;
1026;SDS011;502;48.746;9.214;2023-02-13T07:07:47;21.67;;;14.00;;
1026;SDS011;502;48.746;9.214;2023-02-13T07:10:14;27.30;;;15.57;;
1026;SDS011;502;48.746;9.214;2023-02-13T07:12:40;24.83;;;15.63;;
1026;SDS011;502;48.746;9.214;2023-02-13T07:15:09;25.00;;;17.40;;
1026;SDS011;502;48.746;9.214;2023-02-13T07:17:36;25.37;;;16.57;;
1026;SDS011;502;48.746;9.214;2023-02-13T07:20:03;27.27;;;17.93;;
1026;SDS011;502;48.746;9.214;2023-02-13T07:22:30;26.30;;;18.03;;
1026;SDS011;502;48.746;9.214;2023-02-13T07:24:58;26.00;;;16.50;;
1026;SDS011;502;48.746;9.214;2023-02-13T07:27:25;31.40;;;18.20;;
1026;SDS011;502;48.746;9.214;2023-02-13T07:29:53;28.60;;;16.87;;
1026;SDS011;502;48.746;9.214;2023-02-13T07:32:22;27.77;;;18.57;;
1026;SDS011;502;48.746;9.214;2023-02-13T07:34:49;27.07;;;18.00;;
1026;SDS011;502;48.746;9.214;2023-02-13T07:37:16;25.13;;;17.23;;
1026;SDS011;502;48.746;9.214;2023-02-13T07:39:42;26.30;;;18.50;;
1026;SDS011;502;48.746;9.214;2023-02-13T07:42:09;25.57;;;17.43;;
1026;SDS011;502;48.746;9.214;2023-02-13T07:44:36;28.67;;;19.57;;
1026;SDS011;502;48.746;9.214;2023-02-13T07:47:02;25.77;;;18.03;;
1026;SDS011;502;48.746;9.214;2023-02-13T07:49:30;24.50;;;17.03;;
1026;SDS011;502;48.746;9.214;2023-02-13T07:51:57;20.63;;;15.87;;
1026;SDS011;502;48.746;9.214;2023-02-13T07:54:24;24.03;;;17.53;;
1026;SDS011;502;48.746;9.214;2023-02-13T07:56:51;24.60;;;17.00;;
1026;SDS011;502;48.746;9.214;2023-02-13T07:59:17;24.73;;;16.03;;
1026;SDS011;502;48.746;9.214;2023-02-13T08:01:44;23.50;;;16.83;;
1026;SDS011;502;48.746;9.214;2023-02-13T08:04:11;18.57;;;15.07;;
1026;SDS011;502;48.746;9.214;2023-02-13T08:06:42;19.47;;;14.37;;
1026;SDS011;502;48.746;9.214;2023-02-13T08:09:11;18.87;;;13.50;;
1026;SDS011;502;48.746;9.214;2023-02-13T08:12:02;16.33;;;13.00;;
1026;SDS011;502;48.746;9.214;2023-02-13T08:14:29;22.83;;;15.17;;
1026;SDS011;502;48.746;9.214;2023-02-13T08:16:56;19.07;;;14.23;;
1026;SDS011;502;48.746;9.214;2023-02-13T08:19:24;17.90;;;13.60;;
1026;SDS011;502;48.746;9.214;2023-02-13T08:21:52;16.23;;;12.00;;
1026;SDS011;502;48.746;9.214;2023-02-13T08:24:19;16.00;;;11.97;;
1026;SDS011;502;48.746;9.214;2023-02-13T08:26:45;18.10;;;13.20;;
1026;SDS011;502;48.746;9.214;2023-02-13T08:29:12;15.97;;;12.40;;
1026;SDS011;502;48.746;9.214;2023-02-13T08:31:39;18.10;;;13.43;;
1026;SDS011;502;48.746;9.214;2023-02-13T08:34:05;18.23;;;12.53;;
1026;SDS011;502;48.746;9.214;2023-02-13T08:36:32;17.93;;;14.20;;
1026;SDS011;502;48.746;9.214;2023-02-13T08:39:00;18.30;;;14.20;;
1026;SDS011;502;48.746;9.214;2023-02-13T08:41:27;19.30;;;14.30;;
1026;SDS011;502;48.746;9.214;2023-02-13T08:43:54;19.30;;;14.97;;
1026;SDS011;502;48.746;9.214;2023-02-13T08:46:20;17.43;;;12.87;;
1026;SDS011;502;48.746;9.214;2023-02-13T08:48:47;21.33;;;14.13;;
1026;SDS011;502;48.746;9.214;2023-02-13T08:51:14;18.43;;;14.13;;
1026;SDS011;502;48.746;9.214;2023-02-13T08:53:41;16.10;;;12.57;;
1026;SDS011;502;48.746;9.214;2023-02-13T08:56:09;15.20;;;12.67;;
1026;SDS011;502;48.746;9.214;2023-02-13T08:58:36;18.97;;;12.77;;
1026;SDS011;502;48.746;9.214;2023-02-13T09:01:03;19.30;;;13.87;;
1026;SDS011;502;48.746;9.214;2023-02-13T09:03:31;17.13;;;12.07;;
1026;SDS011;502;48.746;9.214;2023-02-13T09:05:58;16.17;;;12.60;;
1026;SDS011;502;48.746;9.214;2023-02-13T09:08:25;17.17;;;13.20;;
1026;SDS011;502;48.746;9.214;2023-02-13T09:10:54;15.80;;;12.40;;
1026;SDS011;502;48.746;9.214;2023-02-13T09:13:23;18.67;;;11.40;;
1026;SDS011;502;48.746;9.214;2023-02-13T09:15:50;13.40;;;10.30;;
1026;SDS011;502;48.746;9.214;2023-02-13T09:18:16;14.27;;;10.90;;
1026;SDS011;502;48.746;9.214;2023-02-13T09:20:43;15.23;;;11.53;;
1026;SDS011;502;48.746;9.214;2023-02-13T09:23:10;14.00;;;10.27;;
1026;SDS011;502;48.746;9.214;2023-02-13T09:25:36;15.30;;;12.23;;
1026;SDS011;502;48.746;9.214;2023-02-13T09:28:03;16.50;;;10.93;;
1026;SDS011;502;48.746;9.214;2023-02-13T09:30:31;14.47;;;11.33;;
1026;SDS011;502;48.746;9.214;2023-02-13T09:32:58;13.57;;;10.90;;
1026;SDS011;502;48.746;9.214;2023-02-13T09:35:25;13.27;;;11.07;;
1026;SDS011;502;48.746;9.214;2023-02-13T09:37:53;12.90;;;10.70;;
1026;SDS011;502;48.746;9.214;2023-02-13T09:40:21;15.27;;;11.00;;
1026;SDS011;502;48.746;9.214;2023-02-13T09:42:50;17.53;;;12.07;;
1026;SDS011;502;48.746;9.214;2023-02-13T09:45:17;14.00;;;10.80;;
1026;SDS011;502;48.746;9.214;2023-02-13T09:47:47;17.03;;;11.60;;
1026;SDS011;502;48.746;9.214;2023-02-13T09:50:16;14.00;;;10.10;;
1026;SDS011;502;48.746;9.214;2023-02-13T09:52:46;17.07;;;12.83;;
1026;SDS011;502;48.746;9.214;2023-02-13T09:55:15;14.10;;;10.43;;
1026;SDS011;502;48.746;9.214;2023-02-13T09:57:45;14.70;;;11.73;;
1026;SDS011;502;48.746;9.214;2023-02-13T10:00:15;12.13;;;10.80;;
1026;SDS011;502;48.746;9.214;2023-02-13T10:02:50;14.00;;;10.50;;
1026;SDS011;502;48.746;9.214;2023-02-13T10:05:22;15.10;;;10.70;;
1026;SDS011;502;48.746;9.214;2023-02-13T10:07:58;13.80;;;10.13;;
1026;SDS011;502;48.746;9.214;2023-02-13T10:10:30;12.00;;;9.43;;
1026;SDS011;502;48.746;9.214;2023-02-13T10:13:03;13.70;;;9.23;;
1026;SDS011;502;48.746;9.214;2023-02-13T10:15:40;14.53;;;11.53;;
1026;SDS011;502;48.746;9.214;2023-02-13T10:18:13;12.10;;;9.80;;
1026;SDS011;502;48.746;9.214;2023-02-13T10:20:42;15.20;;;10.90;;
1026;SDS011;502;48.746;9.214;2023-02-13T10:23:15;12.67;;;10.40;;
1026;SDS011;502;48.746;9.214;2023-02-13T10:25:45;13.43;;;10.33;;
1026;SDS011;502;48.746;9.214;2023-02-13T10:28:16;13.50;;;10.80;;
1026;SDS011;502;48.746;9.214;2023-02-13T10:30:48;14.50;;;10.57;;
1026;SDS011;502;48.746;9.214;2023-02-13T10:33:19;12.10;;;9.20;;
1026;SDS011;502;48.746;9.214;2023-02-13T10:35:49;12.57;;;10.73;;
1026;SDS011;502;48.746;9.214;2023-02-13T10:38:19;15.43;;;10.83;;
1026;SDS011;502;48.746;9.214;2023-02-13T10:41:05;14.83;;;10.97;;
1026;SDS011;502;48.746;9.214;2023-02-13T10:43:47;12.60;;;9.50;;
1026;SDS011;502;48.746;9.214;2023-02-13T10:46:24;13.10;;;9.53;;
1026;SDS011;502;48.746;9.214;2023-02-13T10:49:12;12.47;;;8.50;;
1026;SDS011;502;48.746;9.214;2023-02-13T10:52:04;12.00;;;10.30;;
1026;SDS011;502;48.746;9.214;2023-02-13T10:54:43;11.20;;;8.47;;
1026;SDS011;502;48.746;9.214;2023-02-13T10:57:24;11.77;;;9.20;;
1026;SDS011;502;48.746;9.214;2023-02-13T10:59:59;10.37;;;8.70;;
1026;SDS011;502;48.746;9.214;2023-02-13T11:02:31;12.20;;;9.90;;
1026;SDS011;502;48.746;9.214;2023-02-13T11:05:01;14.33;;;9.53;;
1026;SDS011;502;48.746;9.214;2023-02-13T11:07:38;12.47;;;9.87;;
1026;SDS011;502;48.746;9.214;2023-02-13T11:10:13;8.90;;;7.77;;
1026;SDS011;502;48.746;9.214;2023-02-13T11:12:41;12.67;;;8.83;;
1026;SDS011;502;48.746;9.214;2023-02-13T11:15:13;12.13;;;9.47;;
1026;SDS011;502;48.746;9.214;2023-02-13T11:17:46;12.53;;;9.03;;
1026;SDS011;502;48.746;9.214;2023-02-13T11:20:24;9.20;;;7.20;;
1026;SDS011;502;48.746;9.214;2023-02-13T11:23:10;9.87;;;8.03;;
1026;SDS011;502;48.746;9.214;2023-02-13T11:25:51;10.17;;;7.47;;
1026;SDS011;502;48.746;9.214;2023-02-13T11:28:20;9.87;;;7.70;;
1026;SDS011;502;48.746;9.214;2023-02-13T11:30:48;10.40;;;8.80;;
1026;SDS011;502;48.746;9.214;2023-02-13T11:33:20;12.70;;;9.00;;
1026;SDS011;502;48.746;9.214;2023-02-13T11:35:49;11.83;;;8.37;;
1026;SDS011;502;48.746;9.214;2023-02-13T11:38:30;11.93;;;9.83;;
1026;SDS011;502;48.746;9.214;2023-02-13T11:41:03;9.47;;;8.10;;
1026;SDS011;502;48.746;9.214;2023-02-13T11:43:32;11.77;;;8.33;;
1026;SDS011;502;48.746;9.214;2023-02-13T11:46:02;11.73;;;9.10;;
1026;SDS011;502;48.746;9.214;2023-02-13T11:48:31;9.00;;;8.00;;
1026;SDS011;502;48.746;9.214;2023-02-13T11:50:59;11.23;;;8.93;;
1026;SDS011;502;48.746;9.214;2023-02-13T11:53:26;11.37;;;8.17;;
1026;SDS011;502;48.746;9.214;2023-02-13T11:56:03;9.90;;;7.80;;
1026;SDS011;502;48.746;9.214;2023-02-13T11:58:32;12.40;;;9.33;;
1026;SDS011;502;48.746;9.214;2023-02-13T12:01:07;10.43;;;8.30;;
1026;SDS011;502;48.746;9.214;2023-02-13T12:03:36;12.03;;;10.23;;
1026;SDS011;502;48.746;9.214;2023-02-13T12:06:05;12.43;;;10.00;;
1026;SDS011;502;48.746;9.214;2023-02-13T12:08:38;14.93;;;11.60;;
1026;SDS011;502;48.746;9.214;2023-02-13T12:11:13;15.97;;;12.50;;
1026;SDS011;502;48.746;9.214;2023-02-13T12:13:46;16.30;;;13.43;;
1026;SDS011;502;48.746;9.214;2023-02-13T12:16:14;15.97;;;11.67;;
1026;SDS011;502;48.746;9.214;2023-02-13T12:18:47;15.87;;;12.10;;
1026;SDS011;502;48.746;9.214;2023-02-13T12:21:21;14.03;;;11.93;;
1026;SDS011;502;48.746;9.214;2023-02-13T12:23:56;14.63;;;11.47;;
1026;SDS011;502;48.746;9.214;2023-02-13T12:26:28;14.43;;;11.53;;
1026;SDS011;502;48.746;9.214;2023-02-13T12:29:09;15.00;;;12.40;;
1026;SDS011;502;48.746;9.214;2023-02-13T12:31:50;14.03;;;12.50;;
1026;SDS011;502;48.746;9.214;2023-02-13T12:40:22;14.30;;;11.30;;
1026;SDS011;502;48.746;9.214;2023-02-13T12:43:17;13.07;;;11.37;;
1026;SDS011;502;48.746;9.214;2023-02-13T12:46:02;12.17;;;10.13;;
1026;SDS011;502;48.746;9.214;2023-02-13T12:48:33;13.00;;;9.77;;
1026;SDS011;502;48.746;9.214;2023-02-13T12:51:06;13.10;;;10.60;;
1026;SDS011;502;48.746;9.214;2023-02-13T12:53:48;13.93;;;11.47;;
1026;SDS011;502;48.746;9.214;2023-02-13T12:56:30;14.33;;;11.87;;
1026;SDS011;502;48.746;9.214;2023-02-13T12:59:07;13.97;;;10.73;;
1026;SDS011;502;48.746;9.214;2023-02-13T13:01:40;13.20;;;10.37;;
1026;SDS011;502;48.746;9.214;2023-02-13T13:04:34;14.77;;;11.10;;
1026;SDS011;502;48.746;9.214;2023-02-13T13:07:13;14.33;;;11.90;;
1026;SDS011;502;48.746;9.214;2023-02-13T13:09:56;15.63;;;12.40;;
1026;SDS011;502;48.746;9.214;2023-02-13T13:12:47;17.00;;;12.33;;
1026;SDS011;502;48.746;9.214;2023-02-13T13:15:18;13.37;;;11.00;;
1026;SDS011;502;48.746;9.214;2023-02-13T13:17:58;12.97;;;10.43;;
1026;SDS011;502;48.746;9.214;2023-02-13T13:23:27;14.00;;;11.13;;
1026;SDS011;502;48.746;9.214;2023-02-13T13:26:04;13.63;;;10.80;;
1026;SDS011;502;48.746;9.214;2023-02-13T13:28:37;14.97;;;10.93;;
1026;SDS011;502;48.746;9.214;2023-02-13T13:31:10;13.73;;;11.03;;
1026;SDS011;502;48.746;9.214;2023-02-13T13:33:38;13.67;;;11.20;;
1026;SDS011;502;48.746;9.214;2023-02-13T13:36:08;11.60;;;9.97;;
1026;SDS011;502;48.746;9.214;2023-02-13T13:38:41;13.03;;;10.40;;
1026;SDS011;502;48.746;9.214;2023-02-13T13:41:20;13.07;;;11.13;;
1026;SDS011;502;48.746;9.214;2023-02-13T13:43:55;15.63;;;11.90;;
1026;SDS011;502;48.746;9.214;2023-02-13T13:46:30;13.33;;;11.17;;
1026;SDS011;502;48.746;9.214;2023-02-13T13:49:08;14.90;;;12.23;;
1026;SDS011;502;48.746;9.214;2023-02-13T13:51:39;13.30;;;10.70;;
1026;SDS011;502;48.746;9.214;2023-02-13T13:54:16;14.43;;;11.20;;
1026;SDS011;502;48.746;9.214;2023-02-13T13:57:05;13.37;;;10.93;;
1026;SDS011;502;48.746;9.214;2023-02-13T13:59:53;17.93;;;12.33;;
1026;SDS011;502;48.746;9.214;2023-02-13T14:02:43;11.57;;;10.10;;
1026;SDS011;502;48.746;9.214;2023-02-13T14:05:22;16.60;;;10.47;;
1026;SDS011;502;48.746;9.214;2023-02-13T14:07:51;13.60;;;10.03;;
1026;SDS011;502;48.746;9.214;2023-02-13T14:13:29;12.97;;;9.20;;
1026;SDS011;502;48.746;9.214;2023-02-13T14:15:57;12.70;;;9.37;;
1026;SDS011;502;48.746;9.214;2023-02-13T14:18:24;15.30;;;9.63;;
1026;SDS011;502;48.746;9.214;2023-02-13T14:20:52;16.50;;;11.23;;
1026;SDS011;502;48.746;9.214;2023-02-13T14:23:31;12.73;;;10.53;;
1026;SDS011;502;48.746;9.214;2023-02-13T14:29:12;13.60;;;10.60;;
1026;SDS011;502;48.746;9.214;2023-02-13T14:31:53;11.47;;;9.60;;
1026;SDS011;502;48.746;9.214;2023-02-13T14:34:36;15.17;;;11.10;;
1026;SDS011;502;48.746;9.214;2023-02-13T14:37:14;13.50;;;9.90;;
1026;SDS011;502;48.746;9.214;2023-02-13T14:42:42;12.50;;;10.60;;
1026;SDS011;502;48.746;9.214;2023-02-13T14:45:12;12.37;;;9.97;;
1026;SDS011;502;48.746;9.214;2023-02-13T14:47:41;12.67;;;10.00;;
1026;SDS011;502;48.746;9.214;2023-02-13T14:50:14;13.70;;;10.00;;
1026;SDS011;502;48.746;9.214;2023-02-13T14:52:43;15.20;;;9.80;;
1026;SDS011;502;48.746;9.214;2023-02-13T14:55:12;12.23;;;9.70;;
1026;SDS011;502;48.746;9.214;2023-02-13T14:57:42;13.20;;;11.30;;
1026;SDS011;502;48.746;9.214;2023-02-13T15:00:15;12.20;;;10.43;;
1026;SDS011;502;48.746;9.214;2023-02-13T15:02:48;11.63;;;9.43;;
1026;SDS011;502;48.746;9.214;2023-02-13T15:05:18;12.03;;;9.80;;
1026;SDS011;502;48.746;9.214;2023-02-13T15:07:46;13.67;;;9.10;;
1026;SDS011;502;48.746;9.214;2023-02-13T15:10:23;10.53;;;8.77;;
1026;SDS011;502;48.746;9.214;2023-02-13T15:12:57;11.30;;;8.57;;
1026;SDS011;502;48.746;9.214;2023-02-13T15:15:26;12.33;;;9.30;;
1026;SDS011;502;48.746;9.214;2023-02-13T15:17:55;19.00;;;10.17;;
1026;SDS011;502;48.746;9.214;2023-02-13T15:20:26;11.30;;;9.20;;
1026;SDS011;502;48.746;9.214;2023-02-13T15:22:55;13.60;;;10.17;;
1026;SDS011;502;48.746;9.214;2023-02-13T15:25:23;13.47;;;8.70;;
1026;SDS011;502;48.746;9.214;2023-02-13T15:27:51;11.77;;;9.30;;
1026;SDS011;502;48.746;9.214;2023-02-13T15:30:19;12.87;;;9.63;;
1026;SDS011;502;48.746;9.214;2023-02-13T15:32:53;12.47;;;9.63;;
1026;SDS011;502;48.746;9.214;2023-02-13T15:35:21;11.57;;;9.27;;
1026;SDS011;502;48.746;9.214;2023-02-13T15:37:49;11.87;;;8.80;;
1026;SDS011;502;48.746;9.214;2023-02-13T15:40:21;12.97;;;9.50;;
1026;SDS011;502;48.746;9.214;2023-02-13T15:42:49;11.87;;;8.13;;
1026;SDS011;502;48.746;9.214;2023-02-13T15:45:16;12.60;;;9.60;;
1026;SDS011;502;48.746;9.214;2023-02-13T15:47:44;13.33;;;9.43;;